createdAt,value
2022-10-23T00:01:18.905Z,12.78
2022-10-23T00:04:26.355Z,12.80
2022-10-23T00:10:35.374Z,12.81
2022-10-23T00:13:40.065Z,12.80
2022-10-23T00:16:44.620Z,12.79
2022-10-23T00:19:48.774Z,12.83
2022-10-23T00:22:52.738Z,12.80
2022-10-23T00:25:56.823Z,12.79
2022-10-23T00:29:00.931Z,12.82
2022-10-23T00:32:05.138Z,12.82
2022-10-23T00:35:09.445Z,12.83
2022-10-23T00:38:13.345Z,12.82
2022-10-23T00:41:22.247Z,12.82
2022-10-23T00:44:25.835Z,12.77
2022-10-23T00:47:30.083Z,12.80
2022-10-23T00:50:34.482Z,12.78
2022-10-23T00:53:39.256Z,12.75
2022-10-23T00:56:44.569Z,12.80
2022-10-23T00:59:48.489Z,12.80
2022-10-23T01:02:54.542Z,12.84
2022-10-23T01:06:26.773Z,12.80
2022-10-23T01:09:51.866Z,12.74
2022-10-23T01:13:12.646Z,12.73
2022-10-23T01:16:27.077Z,12.73
2022-10-23T01:19:48.879Z,12.71
2022-10-23T01:23:26.027Z,12.70
2022-10-23T01:26:45.304Z,12.66
2022-10-23T01:30:01.037Z,12.65
2022-10-23T01:33:08.738Z,12.65
2022-10-23T01:36:19.187Z,12.69
2022-10-23T01:39:31.123Z,12.69
2022-10-23T01:42:46.250Z,12.69
2022-10-23T01:45:55.189Z,12.71
2022-10-23T01:49:00.341Z,12.73
2022-10-23T01:52:07.127Z,12.78
2022-10-23T01:55:13.431Z,12.77
2022-10-23T01:58:21.040Z,12.79
2022-10-23T02:01:29.193Z,12.81
2022-10-23T02:04:49.450Z,12.77
2022-10-23T02:07:54.565Z,12.77
2022-10-23T02:11:09.385Z,12.77
2022-10-23T02:14:29.219Z,12.74
2022-10-23T02:17:52.224Z,12.73
2022-10-23T02:21:01.041Z,12.72
2022-10-23T02:24:15.701Z,12.65
2022-10-23T02:27:28.886Z,12.65
2022-10-23T02:30:35.872Z,12.64
2022-10-23T02:33:40.366Z,12.62
2022-10-23T02:36:44.626Z,12.67
2022-10-23T02:39:49.184Z,12.70
2022-10-23T02:43:13.856Z,12.75
2022-10-23T02:47:02.547Z,12.80
2022-10-23T02:50:18.522Z,12.85
2022-10-23T02:53:25.464Z,12.88
2022-10-23T02:56:41.480Z,12.91
2022-10-23T02:59:54.832Z,12.93
2022-10-23T03:03:02.405Z,12.92
2022-10-23T03:06:07.434Z,12.82
2022-10-23T03:09:11.587Z,12.80
2022-10-23T03:12:16.064Z,12.75
2022-10-23T03:15:20.162Z,12.67
2022-10-23T03:18:24.233Z,12.66
2022-10-23T03:21:27.949Z,12.60
2022-10-23T03:24:31.816Z,12.61
2022-10-23T03:27:36.388Z,12.60
2022-10-23T03:30:40.376Z,12.55
2022-10-23T03:33:44.373Z,12.49
2022-10-23T03:36:48.887Z,12.49
2022-10-23T03:39:52.993Z,12.48
2022-10-23T03:42:57.535Z,12.50
2022-10-23T03:46:02.112Z,12.44
2022-10-23T03:49:06.052Z,12.41
2022-10-23T03:52:10.095Z,12.40
2022-10-23T03:55:14.398Z,12.38
2022-10-23T03:58:18.510Z,12.36
2022-10-23T04:01:22.398Z,12.36
2022-10-23T04:04:26.520Z,12.38
2022-10-23T04:07:30.625Z,12.37
2022-10-23T04:10:34.744Z,12.34
2022-10-23T04:13:38.961Z,12.32
2022-10-23T04:16:42.873Z,12.32
2022-10-23T04:19:46.757Z,12.30
2022-10-23T04:22:50.734Z,12.26
2022-10-23T04:25:58.085Z,12.24
2022-10-23T04:29:02.433Z,12.23
2022-10-23T04:32:08.021Z,12.22
2022-10-23T04:35:11.687Z,12.24
2022-10-23T04:38:15.677Z,12.20
2022-10-23T04:41:19.721Z,12.24
2022-10-23T04:44:23.624Z,12.21
2022-10-23T04:47:27.790Z,12.17
2022-10-23T04:50:31.777Z,12.16
2022-10-23T04:53:35.860Z,12.13
2022-10-23T04:56:40.020Z,12.16
2022-10-23T04:59:44.329Z,12.13
2022-10-23T05:02:48.152Z,12.11
2022-10-23T05:05:55.413Z,12.11
2022-10-23T05:08:59.479Z,12.12
2022-10-23T05:12:03.924Z,12.12
2022-10-23T05:15:08.252Z,12.12
2022-10-23T05:18:18.325Z,12.11
2022-10-23T05:21:26.972Z,12.11
2022-10-23T05:24:31.215Z,12.13
2022-10-23T05:27:35.433Z,12.15
2022-10-23T05:30:39.504Z,12.17
2022-10-23T05:33:44.180Z,12.18
2022-10-23T05:36:49.010Z,12.14
2022-10-23T05:39:53.298Z,12.16
2022-10-23T05:42:57.062Z,12.14
2022-10-23T05:46:05.221Z,12.16
2022-10-23T05:49:09.844Z,12.17
2022-10-23T05:52:13.928Z,12.20
2022-10-23T05:55:18.091Z,12.23
2022-10-23T05:58:23.485Z,12.24
2022-10-23T06:01:27.745Z,12.19
2022-10-23T06:04:31.713Z,12.23
2022-10-23T06:07:36.127Z,12.20
2022-10-23T06:10:40.067Z,12.22
2022-10-23T06:13:45.671Z,12.21
2022-10-23T06:16:49.589Z,12.23
2022-10-23T06:19:53.614Z,12.21
2022-10-23T06:22:57.814Z,12.24
2022-10-23T06:26:02.266Z,12.31
2022-10-23T06:29:06.373Z,12.32
2022-10-23T06:32:10.668Z,12.35
2022-10-23T06:35:14.594Z,12.42
2022-10-23T06:38:18.722Z,12.46
2022-10-23T06:41:23.208Z,12.50
2022-10-23T06:44:27.193Z,12.53
2022-10-23T06:47:30.983Z,12.60
2022-10-23T06:50:36.367Z,12.66
2022-10-23T06:53:40.971Z,12.72
2022-10-23T06:56:44.841Z,12.82
2022-10-23T06:59:48.664Z,12.91
2022-10-23T07:02:53.167Z,12.98
2022-10-23T07:06:01.410Z,13.02
2022-10-23T07:09:05.461Z,13.08
2022-10-23T07:12:09.416Z,13.17
2022-10-23T07:15:13.435Z,13.23
2022-10-23T07:18:19.379Z,13.31
2022-10-23T07:21:23.066Z,13.39
2022-10-23T07:24:27.550Z,13.49
2022-10-23T07:27:31.816Z,13.53
2022-10-23T07:30:35.724Z,13.72
2022-10-23T07:33:39.818Z,13.82
2022-10-23T07:36:43.995Z,13.93
2022-10-23T07:39:48.133Z,14.07
2022-10-23T07:42:51.978Z,14.06
2022-10-23T07:45:56.232Z,13.98
2022-10-23T07:49:00.217Z,13.97
2022-10-23T07:52:05.377Z,14.01
2022-10-23T07:55:09.661Z,14.04
2022-10-23T07:58:13.881Z,14.09
2022-10-23T08:01:36.665Z,14.16
2022-10-23T08:04:40.932Z,14.21
2022-10-23T08:07:45.028Z,14.33
2022-10-23T08:10:50.482Z,14.49
2022-10-23T08:13:56.296Z,14.55
2022-10-23T08:20:04.455Z,14.57
2022-10-23T08:23:08.689Z,14.66
2022-10-23T08:26:12.766Z,14.74
2022-10-23T08:29:16.636Z,14.85
2022-10-23T08:32:20.545Z,14.97
2022-10-23T08:35:25.440Z,15.06
2022-10-23T08:38:29.586Z,15.19
2022-10-23T08:41:36.920Z,15.24
2022-10-23T08:44:53.864Z,15.27
2022-10-23T08:48:04.154Z,15.36
2022-10-23T08:51:29.655Z,15.38
2022-10-23T08:54:57.044Z,15.52
2022-10-23T08:58:06.388Z,15.67
2022-10-23T09:01:33.107Z,15.91
2022-10-23T09:04:37.524Z,16.16
2022-10-23T09:07:55.857Z,16.38
2022-10-23T09:11:18.869Z,16.57
2022-10-23T09:14:48.403Z,16.81
2022-10-23T09:17:59.802Z,16.99
2022-10-23T09:21:09.409Z,17.08
2022-10-23T09:24:20.856Z,17.13
2022-10-23T09:27:24.731Z,17.05
2022-10-23T09:30:37.550Z,17.12
2022-10-23T09:33:42.049Z,17.05
2022-10-23T09:37:02.351Z,16.97
2022-10-23T09:40:24.079Z,17.01
2022-10-23T09:43:29.260Z,17.05
2022-10-23T09:46:45.779Z,17.08
2022-10-23T09:49:52.554Z,17.14
2022-10-23T09:52:57.039Z,17.14
2022-10-23T09:56:04.394Z,17.30
2022-10-23T09:59:11.437Z,17.47
2022-10-23T10:02:36.373Z,17.58
2022-10-23T10:05:42.123Z,17.55
2022-10-23T10:08:52.893Z,17.43
2022-10-23T10:12:01.746Z,17.28
2022-10-23T10:15:25.713Z,17.23
2022-10-23T10:19:10.278Z,17.19
2022-10-23T10:22:42.641Z,17.13
2022-10-23T10:26:11.498Z,17.18
2022-10-23T10:29:36.926Z,17.07
2022-10-23T10:33:09.377Z,17.07
2022-10-23T10:36:52.851Z,17.02
2022-10-23T10:40:27.875Z,16.99
2022-10-23T10:43:43.781Z,17.15
2022-10-23T10:46:57.017Z,17.30
2022-10-23T10:50:24.227Z,17.45
2022-10-23T10:53:40.145Z,17.54
2022-10-23T10:56:45.326Z,17.65
2022-10-23T10:59:52.696Z,17.73
2022-10-23T11:03:17.863Z,17.70
2022-10-23T11:06:25.787Z,17.72
2022-10-23T11:09:30.520Z,17.76
2022-10-23T11:12:34.741Z,17.85
2022-10-23T11:15:42.795Z,17.93
2022-10-23T11:19:24.918Z,18.01
2022-10-23T11:22:46.843Z,18.21
2022-10-23T11:25:59.783Z,18.39
2022-10-23T11:29:27.763Z,18.50
2022-10-23T11:32:56.091Z,18.54
2022-10-23T11:36:14.105Z,18.74
2022-10-23T11:39:33.671Z,18.73
2022-10-23T11:42:41.179Z,18.85
2022-10-23T11:45:45.356Z,18.85
2022-10-23T11:48:53.917Z,18.87
2022-10-23T11:52:05.671Z,18.83
2022-10-23T11:55:18.956Z,18.87
2022-10-23T11:58:31.470Z,18.93
2022-10-23T12:01:45.607Z,18.88
2022-10-23T12:04:53.309Z,18.73
2022-10-23T12:08:00.668Z,18.81
2022-10-23T12:11:05.279Z,18.89
2022-10-23T12:14:33.055Z,19.16
2022-10-23T12:17:43.110Z,19.50
2022-10-23T12:20:52.194Z,19.56
2022-10-23T12:24:27.857Z,19.69
2022-10-23T12:27:58.556Z,19.64
2022-10-23T12:31:27.749Z,19.64
2022-10-23T12:34:53.701Z,19.57
2022-10-23T12:38:03.470Z,19.52
2022-10-23T12:41:14.988Z,19.59
2022-10-23T12:44:18.771Z,19.76
2022-10-23T12:47:22.927Z,19.78
2022-10-23T12:50:29.409Z,19.78
2022-10-23T12:53:33.241Z,19.75
2022-10-23T12:56:38.920Z,19.75
2022-10-23T12:59:43.913Z,19.58
2022-10-23T13:02:58.400Z,19.55
2022-10-23T13:06:03.643Z,19.43
2022-10-23T13:09:19.869Z,19.29
2022-10-23T13:12:27.197Z,19.26
2022-10-23T13:15:40.127Z,19.23
2022-10-23T13:18:44.468Z,19.33
2022-10-23T13:21:49.380Z,19.29
2022-10-23T13:24:53.346Z,19.25
2022-10-23T13:28:40.990Z,19.44
2022-10-23T13:31:45.539Z,19.42
2022-10-23T13:35:04.158Z,19.45
2022-10-23T13:38:28.345Z,19.38
2022-10-23T13:41:43.235Z,19.34
2022-10-23T13:44:47.248Z,19.28
2022-10-23T13:47:51.756Z,19.12
2022-10-23T13:51:06.273Z,19.12
2022-10-23T13:54:22.187Z,19.03
2022-10-23T13:57:26.334Z,18.92
2022-10-23T14:00:30.227Z,18.87
2022-10-23T14:03:34.283Z,18.87
2022-10-23T14:06:39.381Z,18.80
2022-10-23T14:09:43.923Z,18.86
2022-10-23T14:12:48.184Z,18.80
2022-10-23T14:15:55.982Z,18.71
2022-10-23T14:19:00.244Z,18.81
2022-10-23T14:22:04.444Z,18.70
2022-10-23T14:25:08.603Z,18.62
2022-10-23T14:28:12.745Z,18.68
2022-10-23T14:31:18.088Z,18.71
2022-10-23T14:34:22.680Z,18.63
2022-10-23T14:37:26.739Z,18.68
2022-10-23T14:40:30.941Z,18.64
2022-10-23T14:43:34.927Z,18.62
2022-10-23T14:46:38.826Z,18.51
2022-10-23T14:49:44.230Z,18.46
2022-10-23T14:52:48.371Z,18.42
2022-10-23T14:55:52.757Z,18.39
2022-10-23T14:59:02.650Z,18.46
2022-10-23T15:02:06.754Z,18.40
2022-10-23T15:05:10.541Z,18.40
2022-10-23T15:08:14.830Z,18.36
2022-10-23T15:11:19.048Z,18.32
2022-10-23T15:14:23.179Z,18.27
2022-10-23T15:17:27.282Z,18.28
2022-10-23T15:20:31.251Z,18.19
2022-10-23T15:23:40.304Z,18.15
2022-10-23T15:26:44.500Z,18.12
2022-10-23T15:29:48.282Z,18.06
2022-10-23T15:32:52.463Z,18.02
2022-10-23T15:35:56.725Z,17.99
2022-10-23T15:39:00.702Z,17.96
2022-10-23T15:42:06.166Z,17.93
2022-10-23T15:45:12.637Z,17.91
2022-10-23T15:48:16.743Z,17.89
2022-10-23T15:51:21.694Z,17.91
2022-10-23T15:54:28.195Z,17.92
2022-10-23T15:57:34.684Z,17.98
2022-10-23T16:00:39.575Z,17.97
2022-10-23T16:03:43.687Z,17.94
2022-10-23T16:06:48.511Z,17.96
2022-10-23T16:09:52.926Z,17.90
2022-10-23T16:12:57.228Z,17.84
2022-10-23T16:16:03.742Z,17.81
2022-10-23T16:19:07.788Z,17.85
2022-10-23T16:22:12.504Z,17.81
2022-10-23T16:25:16.567Z,17.78
2022-10-23T16:28:21.204Z,17.81
2022-10-23T16:31:26.674Z,17.79
2022-10-23T16:34:30.694Z,17.79
2022-10-23T16:37:34.467Z,17.81
2022-10-23T16:40:38.598Z,17.79
2022-10-23T16:43:42.985Z,17.72
2022-10-23T16:46:46.852Z,17.54
2022-10-23T16:49:50.704Z,17.44
2022-10-23T16:52:55.871Z,17.40
2022-10-23T16:56:00.356Z,17.29
2022-10-23T16:59:05.485Z,17.21
2022-10-23T17:02:11.516Z,17.14
2022-10-23T17:05:15.633Z,17.10
2022-10-23T17:08:20.025Z,17.00
2022-10-23T17:11:29.505Z,16.99
2022-10-23T17:14:33.264Z,16.90
2022-10-23T17:17:37.620Z,16.81
2022-10-23T17:20:41.597Z,16.73
2022-10-23T17:23:45.625Z,16.67
2022-10-23T17:26:49.611Z,16.61
2022-10-23T17:29:53.610Z,16.55
2022-10-23T17:32:59.530Z,16.46
2022-10-23T17:36:06.554Z,16.42
2022-10-23T17:39:14.074Z,16.43
2022-10-23T17:42:18.318Z,16.45
2022-10-23T17:45:22.771Z,16.49
2022-10-23T17:48:27.308Z,16.53
2022-10-23T17:51:33.506Z,16.61
2022-10-23T17:54:37.721Z,16.66
2022-10-23T17:57:42.225Z,16.67
2022-10-23T18:00:46.849Z,16.73
2022-10-23T18:03:52.485Z,16.66
2022-10-23T18:06:56.292Z,16.67
2022-10-23T18:10:00.350Z,16.57
2022-10-23T18:13:04.584Z,16.52
2022-10-23T18:16:11.324Z,16.53
2022-10-23T18:19:18.203Z,16.52
2022-10-23T18:22:22.755Z,16.58
2022-10-23T18:25:26.620Z,16.65
2022-10-23T18:28:31.139Z,16.76
2022-10-23T18:31:37.402Z,16.93
2022-10-23T18:34:41.558Z,16.88
2022-10-23T18:37:45.595Z,16.85
2022-10-23T18:40:54.431Z,17.01
2022-10-23T18:43:58.347Z,17.06
2022-10-23T18:47:02.387Z,17.05
2022-10-23T18:50:07.602Z,17.03
2022-10-23T18:53:11.760Z,17.02
2022-10-23T18:56:23.287Z,17.01
2022-10-23T18:59:27.527Z,16.95
2022-10-23T19:02:33.125Z,16.91
2022-10-23T19:05:42.040Z,16.90
2022-10-23T19:08:46.764Z,16.87
2022-10-23T19:11:51.281Z,16.84
2022-10-23T19:14:55.826Z,16.75
2022-10-23T19:17:59.916Z,16.80
2022-10-23T19:21:06.020Z,16.90
2022-10-23T19:24:30.606Z,16.78
2022-10-23T19:27:34.800Z,16.76
2022-10-23T19:30:39.605Z,16.78
2022-10-23T19:33:43.396Z,16.64
2022-10-23T19:36:48.374Z,16.62
2022-10-23T19:39:52.407Z,16.61
2022-10-23T19:42:56.486Z,16.59
2022-10-23T19:46:05.026Z,16.54
2022-10-23T19:49:11.961Z,16.60
2022-10-23T19:52:16.114Z,16.55
2022-10-23T19:55:19.975Z,16.63
2022-10-23T19:58:23.877Z,16.70
2022-10-23T20:01:28.363Z,16.71
2022-10-23T20:04:34.992Z,16.71
2022-10-23T20:07:39.617Z,16.64
2022-10-23T20:10:46.532Z,16.73
2022-10-23T20:13:51.800Z,16.68
2022-10-23T20:16:56.233Z,16.58
2022-10-23T20:20:00.644Z,16.51
2022-10-23T20:23:04.811Z,16.50
2022-10-23T20:26:12.194Z,16.45
2022-10-23T20:29:16.371Z,16.42
2022-10-23T20:32:20.422Z,16.39
2022-10-23T20:35:24.826Z,16.34
2022-10-23T20:38:30.510Z,16.26
2022-10-23T20:41:37.178Z,16.16
2022-10-23T20:44:41.204Z,16.12
2022-10-23T20:47:48.015Z,16.06
2022-10-23T20:50:52.403Z,16.07
2022-10-23T20:53:56.843Z,15.99
2022-10-23T20:57:01.412Z,15.94
2022-10-23T21:00:07.194Z,15.92
2022-10-23T21:03:11.046Z,15.85
2022-10-23T21:06:16.287Z,15.79
2022-10-23T21:09:21.193Z,15.71
2022-10-23T21:12:25.382Z,15.64
2022-10-23T21:15:32.702Z,15.59
2022-10-23T21:18:45.592Z,15.43
2022-10-23T21:21:50.837Z,15.40
2022-10-23T21:24:56.973Z,15.31
2022-10-23T21:28:02.976Z,15.28
2022-10-23T21:31:09.759Z,15.23
2022-10-23T21:34:14.196Z,15.27
2022-10-23T21:37:18.153Z,15.23
2022-10-23T21:40:22.065Z,15.21
2022-10-23T21:43:25.815Z,15.23
2022-10-23T21:46:32.184Z,15.23
2022-10-23T21:49:36.453Z,15.25
2022-10-23T21:52:41.157Z,15.25
2022-10-23T21:55:45.264Z,15.22
2022-10-23T21:58:49.461Z,15.22
2022-10-23T22:01:53.875Z,15.20
2022-10-23T22:04:57.910Z,15.19
2022-10-23T22:08:01.645Z,15.19
2022-10-23T22:11:06.036Z,15.18
2022-10-23T22:14:10.115Z,15.34
2022-10-23T22:17:14.287Z,15.29
2022-10-23T22:20:18.233Z,15.20
2022-10-23T22:23:22.368Z,15.13
2022-10-23T22:26:29.503Z,15.27
2022-10-23T22:29:33.695Z,15.29
2022-10-23T22:32:37.747Z,15.20
2022-10-23T22:35:41.585Z,15.10
2022-10-23T22:38:45.399Z,15.08
2022-10-23T22:41:50.347Z,15.06
2022-10-23T22:44:54.623Z,15.08
2022-10-23T22:47:58.664Z,15.04
2022-10-23T22:51:04.012Z,14.99
2022-10-23T22:54:08.007Z,15.00
2022-10-23T22:57:12.107Z,15.00
2022-10-23T23:00:16.962Z,14.90
2022-10-23T23:03:21.092Z,14.81
2022-10-23T23:06:25.211Z,14.73
2022-10-23T23:09:29.063Z,14.65
2022-10-23T23:12:32.828Z,14.62
2022-10-23T23:15:41.094Z,14.57
2022-10-23T23:18:45.364Z,14.53
2022-10-23T23:21:50.965Z,14.50
2022-10-23T23:24:54.652Z,14.50
2022-10-23T23:27:58.893Z,14.52
2022-10-23T23:31:18.778Z,14.52
2022-10-23T23:34:22.874Z,14.52
2022-10-23T23:37:27.787Z,14.49
2022-10-23T23:40:32.087Z,14.46
2022-10-23T23:43:35.918Z,14.45
2022-10-23T23:46:39.818Z,14.41
2022-10-23T23:49:43.732Z,14.39
2022-10-23T23:52:47.679Z,14.38
2022-10-23T23:55:51.614Z,14.36
2022-10-23T23:58:55.866Z,14.34
